createdAt,value
2022-08-09T00:00:11.398Z,18.45
2022-08-09T00:02:49.051Z,18.41
2022-08-09T00:06:19.299Z,18.37
2022-08-09T00:08:04.043Z,18.31
2022-08-09T00:10:36.716Z,18.25
2022-08-09T00:13:06.631Z,18.21
2022-08-09T00:15:58.694Z,18.16
2022-08-09T00:18:29.728Z,18.09
2022-08-09T00:20:57.906Z,18.07
2022-08-09T00:23:54.986Z,18.04
2022-08-09T00:26:12.136Z,17.97
2022-08-09T00:28:40.172Z,17.91
2022-08-09T00:31:50.487Z,17.90
2022-08-09T00:33:55.165Z,17.85
2022-08-09T00:36:29.864Z,17.83
2022-08-09T00:38:57.680Z,17.81
2022-08-09T00:44:15.132Z,17.78
2022-08-09T00:44:24.990Z,17.71
2022-08-09T00:46:56.303Z,17.68
2022-08-09T00:49:28.487Z,17.66
2022-08-09T00:51:57.320Z,17.63
2022-08-09T00:54:31.655Z,17.61
2022-08-09T00:57:02.401Z,17.57
2022-08-09T00:59:41.405Z,17.53
2022-08-09T01:02:19.182Z,17.46
2022-08-09T01:05:03.621Z,17.40
2022-08-09T01:08:19.005Z,17.34
2022-08-09T01:11:20.964Z,17.27
2022-08-09T01:14:01.971Z,17.24
2022-08-09T01:16:47.314Z,17.20
2022-08-09T01:19:40.233Z,17.18
2022-08-09T01:22:45.458Z,17.14
2022-08-09T01:25:37.368Z,17.11
2022-08-09T01:28:09.965Z,17.07
2022-08-09T01:30:51.463Z,17.03
2022-08-09T01:33:23.740Z,16.99
2022-08-09T01:35:59.244Z,16.95
2022-08-09T01:38:29.863Z,16.92
2022-08-09T01:41:05.631Z,16.90
2022-08-09T01:43:50.183Z,16.86
2022-08-09T01:46:24.167Z,16.84
2022-08-09T01:48:55.787Z,16.80
2022-08-09T01:51:26.217Z,16.78
2022-08-09T01:53:58.115Z,16.78
2022-08-09T01:56:27.054Z,16.75
2022-08-09T01:58:55.277Z,16.73
2022-08-09T02:01:57.928Z,16.69
2022-08-09T02:04:12.590Z,16.65
2022-08-09T02:07:02.533Z,16.65
2022-08-09T02:09:42.206Z,16.61
2022-08-09T02:12:11.481Z,16.58
2022-08-09T02:14:51.578Z,16.55
2022-08-09T02:17:54.926Z,16.52
2022-08-09T02:20:10.435Z,16.46
2022-08-09T02:22:45.683Z,16.43
2022-08-09T02:25:18.672Z,16.39
2022-08-09T02:28:00.470Z,16.34
2022-08-09T02:30:37.385Z,16.27
2022-08-09T02:33:08.045Z,16.24
2022-08-09T02:36:03.262Z,16.20
2022-08-09T02:38:34.920Z,16.16
2022-08-09T02:41:09.336Z,16.12
2022-08-09T02:43:42.384Z,16.09
2022-08-09T02:46:24.221Z,16.05
2022-08-09T02:48:52.831Z,16.04
2022-08-09T02:51:23.144Z,15.98
2022-08-09T02:54:00.957Z,15.94
2022-08-09T02:56:31.663Z,15.92
2022-08-09T02:59:02.032Z,15.89
2022-08-09T03:01:43.314Z,15.86
2022-08-09T03:04:19.837Z,15.83
2022-08-09T03:06:48.831Z,15.79
2022-08-09T03:09:16.437Z,15.77
2022-08-09T03:12:09.593Z,15.76
2022-08-09T03:14:32.125Z,15.73
2022-08-09T03:17:01.531Z,15.72
2022-08-09T03:19:58.277Z,15.68
2022-08-09T03:22:25.077Z,15.66
2022-08-09T03:25:06.652Z,15.63
2022-08-09T03:27:47.076Z,15.61
2022-08-09T03:30:29.932Z,15.60
2022-08-09T03:33:13.131Z,15.59
2022-08-09T03:36:15.664Z,15.56
2022-08-09T03:38:32.616Z,15.54
2022-08-09T03:40:59.309Z,15.52
2022-08-09T03:43:31.674Z,15.51
2022-08-09T03:46:04.065Z,15.50
2022-08-09T03:48:51.901Z,15.46
2022-08-09T03:51:57.792Z,15.46
2022-08-09T03:54:10.879Z,15.41
2022-08-09T03:56:41.344Z,15.41
2022-08-09T03:59:17.047Z,15.39
2022-08-09T04:01:50.512Z,15.36
2022-08-09T04:04:18.118Z,15.30
2022-08-09T04:06:49.185Z,15.27
2022-08-09T04:09:47.883Z,15.27
2022-08-09T04:12:11.926Z,15.27
2022-08-09T04:15:00.682Z,15.26
2022-08-09T04:17:25.906Z,15.25
2022-08-09T04:19:56.314Z,15.26
2022-08-09T04:22:22.904Z,15.28
2022-08-09T04:24:49.304Z,15.30
2022-08-09T04:27:17.296Z,15.30
2022-08-09T04:29:49.924Z,15.31
2022-08-09T04:32:17.099Z,15.32
2022-08-09T04:34:58.066Z,15.32
2022-08-09T04:37:45.647Z,15.33
2022-08-09T04:40:28.755Z,15.32
2022-08-09T04:43:00.533Z,15.32
2022-08-09T04:45:28.395Z,15.34
2022-08-09T04:48:04.052Z,15.33
2022-08-09T04:50:35.054Z,15.35
2022-08-09T04:53:12.965Z,15.34
2022-08-09T04:55:57.369Z,15.35
2022-08-09T04:58:24.091Z,15.35
2022-08-09T05:00:52.121Z,15.34
2022-08-09T05:03:39.898Z,15.35
2022-08-09T05:06:08.532Z,15.34
2022-08-09T05:08:35.498Z,15.36
2022-08-09T05:11:03.402Z,15.36
2022-08-09T05:13:33.841Z,15.36
2022-08-09T05:16:01.044Z,15.37
2022-08-09T05:18:39.387Z,15.39
2022-08-09T05:21:23.250Z,15.39
2022-08-09T05:23:59.720Z,15.39
2022-08-09T05:26:36.079Z,15.37
2022-08-09T05:29:04.354Z,15.41
2022-08-09T05:31:44.099Z,15.42
2022-08-09T05:34:16.889Z,15.45
2022-08-09T05:36:47.200Z,15.47
2022-08-09T05:39:28.477Z,15.52
2022-08-09T05:41:56.589Z,15.56
2022-08-09T05:44:32.220Z,15.59
2022-08-09T05:46:59.260Z,15.65
2022-08-09T05:50:24.511Z,15.71
2022-08-09T05:52:13.726Z,15.82
2022-08-09T05:54:41.829Z,15.91
2022-08-09T05:57:12.811Z,16.00
2022-08-09T05:59:44.075Z,16.10
2022-08-09T06:02:11.779Z,16.21
2022-08-09T06:04:44.766Z,16.32
2022-08-09T06:07:21.714Z,16.44
2022-08-09T06:10:02.094Z,16.53
2022-08-09T06:12:29.957Z,16.62
2022-08-09T06:15:00.978Z,16.74
2022-08-09T06:17:40.260Z,16.84
2022-08-09T06:20:08.054Z,16.95
2022-08-09T06:22:34.933Z,17.06
2022-08-09T06:25:01.685Z,17.17
2022-08-09T06:27:42.974Z,17.27
2022-08-09T06:30:16.123Z,17.39
2022-08-09T06:33:00.960Z,17.53
2022-08-09T06:35:56.425Z,17.65
2022-08-09T06:38:17.423Z,17.76
2022-08-09T06:40:45.820Z,17.88
2022-08-09T06:43:13.490Z,17.98
2022-08-09T06:46:06.031Z,18.09
2022-08-09T06:48:30.927Z,18.17
2022-08-09T06:50:59.144Z,18.28
2022-08-09T06:53:25.635Z,18.36
2022-08-09T06:55:52.640Z,18.44
2022-08-09T06:58:40.937Z,18.55
2022-08-09T07:01:06.072Z,18.64
2022-08-09T07:03:39.585Z,18.72
2022-08-09T07:06:18.940Z,18.81
2022-08-09T07:08:46.693Z,18.88
2022-08-09T07:11:23.558Z,18.97
2022-08-09T07:14:04.791Z,19.06
2022-08-09T07:16:42.754Z,19.16
2022-08-09T07:19:23.100Z,19.26
2022-08-09T07:21:56.974Z,19.36
2022-08-09T07:24:32.357Z,19.43
2022-08-09T07:27:11.172Z,19.53
2022-08-09T07:29:57.086Z,19.59
2022-08-09T07:32:33.323Z,19.67
2022-08-09T07:35:02.719Z,19.75
2022-08-09T07:37:43.542Z,19.83
2022-08-09T07:40:17.499Z,19.95
2022-08-09T07:42:57.541Z,20.03
2022-08-09T07:45:40.393Z,20.07
2022-08-09T07:48:25.640Z,20.13
2022-08-09T07:51:09.135Z,20.21
2022-08-09T07:54:07.801Z,20.29
2022-08-09T07:56:44.755Z,20.39
2022-08-09T07:59:34.198Z,20.48
2022-08-09T08:02:04.833Z,20.58
2022-08-09T08:04:32.684Z,20.66
2022-08-09T08:07:14.717Z,20.78
2022-08-09T08:09:55.122Z,20.86
2022-08-09T08:12:34.199Z,21.00
2022-08-09T08:15:00.782Z,21.11
2022-08-09T08:17:52.358Z,21.24
2022-08-09T08:20:14.177Z,21.38
2022-08-09T08:22:41.254Z,21.49
2022-08-09T08:25:13.633Z,21.59
2022-08-09T08:27:42.904Z,21.70
2022-08-09T08:30:11.697Z,21.80
2022-08-09T08:32:52.133Z,21.92
2022-08-09T08:35:20.086Z,22.04
2022-08-09T08:37:59.483Z,22.16
2022-08-09T08:40:29.529Z,22.27
2022-08-09T08:42:58.783Z,22.38
2022-08-09T08:45:43.188Z,22.49
2022-08-09T08:48:19.611Z,22.60
2022-08-09T08:50:49.184Z,22.70
2022-08-09T08:53:21.828Z,22.79
2022-08-09T08:55:48.902Z,22.91
2022-08-09T08:58:27.041Z,23.03
2022-08-09T09:00:57.077Z,23.13
2022-08-09T09:03:33.255Z,23.24
2022-08-09T09:06:05.793Z,23.35
2022-08-09T09:08:40.206Z,23.48
2022-08-09T09:11:13.692Z,23.62
2022-08-09T09:13:56.489Z,23.76
2022-08-09T09:16:35.066Z,23.88
2022-08-09T09:19:40.161Z,24.02
2022-08-09T09:22:11.459Z,24.14
2022-08-09T09:24:49.878Z,24.24
2022-08-09T09:28:05.271Z,24.37
2022-08-09T09:30:33.043Z,24.47
2022-08-09T09:33:15.472Z,24.59
2022-08-09T09:36:02.626Z,24.73
2022-08-09T09:38:45.131Z,24.84
2022-08-09T09:41:28.043Z,24.92
2022-08-09T09:44:12.890Z,24.99
2022-08-09T09:46:45.887Z,25.11
2022-08-09T09:49:31.717Z,25.26
2022-08-09T09:52:16.340Z,25.42
2022-08-09T09:55:16.191Z,25.59
2022-08-09T09:58:16.922Z,25.73
2022-08-09T10:00:54.147Z,25.82
2022-08-09T10:03:56.460Z,25.91
2022-08-09T10:06:42.689Z,26.04
2022-08-09T10:09:22.639Z,26.17
2022-08-09T10:12:14.692Z,26.27
2022-08-09T10:14:48.682Z,26.44
2022-08-09T10:17:51.445Z,26.56
2022-08-09T10:20:35.462Z,26.73
2022-08-09T10:23:23.655Z,26.90
2022-08-09T10:26:07.072Z,27.01
2022-08-09T10:28:39.933Z,27.18
2022-08-09T10:34:08.782Z,27.38
2022-08-09T10:36:42.734Z,27.53
2022-08-09T10:39:16.200Z,27.70
2022-08-09T10:41:47.558Z,27.80
2022-08-09T10:44:21.619Z,27.94
2022-08-09T10:48:17.203Z,28.08
2022-08-09T10:50:32.814Z,28.24
2022-08-09T10:53:10.349Z,28.41
2022-08-09T10:55:57.849Z,28.60
2022-08-09T10:58:33.922Z,28.80
2022-08-09T11:03:07.316Z,28.93
2022-08-09T11:04:20.106Z,29.07
2022-08-09T11:07:01.121Z,29.21
2022-08-09T11:09:48.752Z,29.34
2022-08-09T11:12:17.388Z,29.42
2022-08-09T11:14:57.568Z,29.54
2022-08-09T11:17:26.665Z,29.70
2022-08-09T11:20:19.910Z,29.83
2022-08-09T11:22:57.102Z,29.98
2022-08-09T11:25:44.470Z,30.13
2022-08-09T11:28:54.100Z,30.28
2022-08-09T11:31:43.093Z,30.32
2022-08-09T11:34:17.648Z,30.49
2022-08-09T11:36:45.475Z,30.66
2022-08-09T11:39:12.126Z,30.80
2022-08-09T11:41:40.704Z,30.88
2022-08-09T11:44:08.245Z,30.99
2022-08-09T11:46:55.654Z,30.98
2022-08-09T11:50:56.996Z,31.09
2022-08-09T11:53:28.230Z,31.24
2022-08-09T11:55:53.505Z,31.40
2022-08-09T11:58:33.224Z,31.55
2022-08-09T12:01:08.790Z,31.74
2022-08-09T12:03:56.006Z,31.72
2022-08-09T12:06:32.542Z,31.84
2022-08-09T12:09:17.548Z,31.95
2022-08-09T12:12:02.219Z,32.03
2022-08-09T12:14:40.553Z,32.11
2022-08-09T12:17:27.614Z,32.25
2022-08-09T12:20:12.183Z,32.52
2022-08-09T12:22:44.303Z,32.62
2022-08-09T12:25:15.879Z,32.71
2022-08-09T12:29:11.489Z,32.94
2022-08-09T12:30:35.238Z,33.27
2022-08-09T12:33:04.498Z,33.55
2022-08-09T12:35:36.024Z,33.74
2022-08-09T12:38:29.500Z,33.90
2022-08-09T12:41:04.610Z,34.01
2022-08-09T12:44:06.705Z,34.27
2022-08-09T12:46:21.252Z,34.48
2022-08-09T12:48:49.102Z,34.69
2022-08-09T12:51:30.300Z,34.90
2022-08-09T12:54:06.903Z,35.05
2022-08-09T12:56:48.448Z,35.07
2022-08-09T12:59:20.508Z,35.23
2022-08-09T13:02:09.368Z,35.49
2022-08-09T13:04:38.846Z,35.62
2022-08-09T13:07:19.386Z,35.86
2022-08-09T13:09:55.010Z,36.01
2022-08-09T13:12:26.798Z,35.60
2022-08-09T13:15:07.316Z,35.51
2022-08-09T13:18:02.819Z,35.46
2022-08-09T13:20:37.354Z,34.95
2022-08-09T13:24:07.361Z,35.06
2022-08-09T13:26:05.516Z,35.35
2022-08-09T13:28:35.689Z,35.50
2022-08-09T13:32:16.569Z,35.72
2022-08-09T13:33:58.662Z,35.88
2022-08-09T13:36:42.359Z,35.80
2022-08-09T13:41:56.658Z,35.87
2022-08-09T13:42:02.160Z,35.50
2022-08-09T13:44:29.158Z,35.66
2022-08-09T13:47:26.425Z,35.96
2022-08-09T13:50:01.015Z,36.01
2022-08-09T13:52:29.244Z,35.87
2022-08-09T13:54:59.763Z,35.53
2022-08-09T13:57:35.554Z,35.22
2022-08-09T14:00:13.930Z,34.93
2022-08-09T14:03:03.366Z,34.75
2022-08-09T14:05:58.520Z,34.92
2022-08-09T14:08:18.528Z,34.97
2022-08-09T14:10:51.961Z,34.86
2022-08-09T14:13:21.524Z,34.67
2022-08-09T14:16:06.890Z,34.38
2022-08-09T14:18:37.383Z,34.09
2022-08-09T14:21:04.023Z,33.97
2022-08-09T14:23:40.103Z,34.10
2022-08-09T14:26:13.492Z,34.47
2022-08-09T14:28:40.023Z,34.88
2022-08-09T14:31:07.373Z,35.30
2022-08-09T14:33:38.242Z,35.79
2022-08-09T14:36:19.796Z,35.89
2022-08-09T14:38:52.582Z,36.27
2022-08-09T14:41:34.850Z,36.69
2022-08-09T14:44:06.971Z,36.82
2022-08-09T14:46:54.919Z,36.95
2022-08-09T14:49:24.485Z,37.02
2022-08-09T14:51:51.386Z,36.85
2022-08-09T14:54:28.252Z,36.51
2022-08-09T14:56:58.985Z,36.23
2022-08-09T14:59:27.431Z,36.15
2022-08-09T15:01:55.552Z,35.87
2022-08-09T15:04:23.505Z,35.87
2022-08-09T15:06:50.646Z,36.15
2022-08-09T15:09:52.003Z,36.39
2022-08-09T15:12:08.202Z,36.72
2022-08-09T15:14:38.278Z,36.93
2022-08-09T15:17:07.712Z,36.96
2022-08-09T15:19:36.577Z,37.23
2022-08-09T15:22:03.719Z,36.84
2022-08-09T15:24:30.279Z,36.83
2022-08-09T15:26:57.757Z,37.00
2022-08-09T15:30:55.673Z,37.12
2022-08-09T15:32:29.027Z,36.95
2022-08-09T15:34:59.863Z,37.13
2022-08-09T15:37:57.329Z,37.33
2022-08-09T15:40:32.058Z,37.71
2022-08-09T15:42:59.893Z,38.03
2022-08-09T15:45:29.332Z,38.25
2022-08-09T15:48:06.525Z,38.43
2022-08-09T15:50:44.010Z,38.69
2022-08-09T15:54:02.091Z,38.76
2022-08-09T15:56:21.466Z,38.67
2022-08-09T15:58:44.881Z,38.55
2022-08-09T16:01:13.365Z,38.63
2022-08-09T16:03:41.726Z,38.56
2022-08-09T16:06:29.307Z,38.57
2022-08-09T16:08:56.053Z,38.64
2022-08-09T16:11:22.690Z,38.68
2022-08-09T16:14:03.978Z,38.62
2022-08-09T16:16:32.665Z,38.57
2022-08-09T16:19:01.257Z,38.63
2022-08-09T16:21:31.518Z,38.74
2022-08-09T16:24:02.875Z,38.79
2022-08-09T16:26:35.237Z,38.78
2022-08-09T16:29:14.434Z,38.71
2022-08-09T16:32:20.020Z,38.57
2022-08-09T16:34:53.518Z,38.61
2022-08-09T16:37:16.582Z,38.53
2022-08-09T16:39:54.783Z,38.34
2022-08-09T16:42:29.404Z,38.02
2022-08-09T16:44:55.911Z,37.61
2022-08-09T16:48:38.747Z,37.23
2022-08-09T16:50:32.231Z,36.67
2022-08-09T16:52:55.917Z,36.24
2022-08-09T16:55:22.613Z,35.90
2022-08-09T16:58:08.791Z,35.61
2022-08-09T17:00:36.644Z,35.32
2022-08-09T17:03:05.185Z,35.07
2022-08-09T17:06:07.277Z,34.85
2022-08-09T17:08:46.752Z,34.60
2022-08-09T17:11:06.522Z,34.45
2022-08-09T17:13:34.441Z,34.34
2022-08-09T17:16:02.454Z,34.19
2022-08-09T17:18:29.860Z,34.07
2022-08-09T17:20:57.020Z,33.97
2022-08-09T17:23:23.819Z,33.83
2022-08-09T17:26:10.402Z,33.66
2022-08-09T17:28:38.965Z,33.55
2022-08-09T17:31:05.772Z,33.43
2022-08-09T17:33:36.087Z,33.27
2022-08-09T17:36:05.317Z,33.09
2022-08-09T17:38:38.647Z,33.03
2022-08-09T17:41:06.321Z,33.04
2022-08-09T17:43:37.653Z,33.08
2022-08-09T17:46:09.252Z,33.04
2022-08-09T17:48:39.369Z,32.95
2022-08-09T17:51:18.150Z,32.82
2022-08-09T17:53:48.236Z,32.71
2022-08-09T17:56:21.612Z,32.62
2022-08-09T17:58:48.103Z,32.51
2022-08-09T18:01:15.681Z,32.40
2022-08-09T18:03:49.432Z,32.28
2022-08-09T18:06:30.914Z,32.22
2022-08-09T18:09:01.063Z,32.07
2022-08-09T18:11:27.500Z,31.98
2022-08-09T18:14:02.515Z,31.90
2022-08-09T18:16:30.753Z,31.78
2022-08-09T18:18:59.458Z,31.63
2022-08-09T18:21:31.848Z,31.42
2022-08-09T18:24:14.471Z,31.23
2022-08-09T18:26:46.735Z,31.05
2022-08-09T18:30:42.990Z,30.91
2022-08-09T18:32:03.998Z,30.73
2022-08-09T18:34:34.989Z,30.58
2022-08-09T18:37:03.681Z,30.39
2022-08-09T18:39:32.705Z,30.24
2022-08-09T18:42:01.683Z,30.13
2022-08-09T18:44:28.161Z,29.98
2022-08-09T18:47:04.927Z,29.88
2022-08-09T18:49:43.748Z,29.80
2022-08-09T18:52:16.125Z,29.66
2022-08-09T18:54:52.868Z,29.51
2022-08-09T18:57:22.196Z,29.32
2022-08-09T18:59:55.415Z,29.13
2022-08-09T19:02:32.188Z,28.90
2022-08-09T19:05:15.312Z,28.75
2022-08-09T19:08:04.768Z,28.53
2022-08-09T19:10:37.468Z,28.36
2022-08-09T19:13:22.936Z,28.24
2022-08-09T19:15:56.782Z,28.11
2022-08-09T19:18:35.673Z,28.00
2022-08-09T19:21:09.818Z,27.87
2022-08-09T19:24:37.779Z,27.77
2022-08-09T19:26:31.392Z,27.60
2022-08-09T19:29:09.534Z,27.45
2022-08-09T19:31:46.238Z,27.30
2022-08-09T19:34:21.886Z,27.20
2022-08-09T19:36:54.234Z,27.05
2022-08-09T19:39:43.773Z,26.89
2022-08-09T19:42:08.808Z,26.78
2022-08-09T19:44:35.422Z,26.68
2022-08-09T19:47:02.615Z,26.58
2022-08-09T19:50:09.647Z,26.50
2022-08-09T19:52:18.130Z,26.40
2022-08-09T19:54:44.789Z,26.33
2022-08-09T19:57:11.247Z,26.26
2022-08-09T19:59:57.640Z,26.20
2022-08-09T20:04:12.665Z,26.12
2022-08-09T20:05:14.552Z,26.07
2022-08-09T20:08:00.168Z,26.03
2022-08-09T20:10:36.206Z,26.01
2022-08-09T20:13:06.305Z,25.99
2022-08-09T20:16:32.974Z,25.99
2022-08-09T20:18:22.521Z,25.95
2022-08-09T20:20:50.343Z,25.96
2022-08-09T20:23:20.994Z,25.93
2022-08-09T20:25:51.393Z,25.91
2022-08-09T20:28:27.484Z,25.87
2022-08-09T20:30:54.734Z,25.85
2022-08-09T20:33:21.677Z,25.80
2022-08-09T20:35:51.675Z,25.76
2022-08-09T20:38:33.116Z,25.67
2022-08-09T20:41:05.580Z,25.58
2022-08-09T20:43:32.533Z,25.53
2022-08-09T20:46:15.217Z,25.46
2022-08-09T20:48:45.365Z,25.35
2022-08-09T20:51:19.308Z,25.27
2022-08-09T20:53:46.402Z,25.17
2022-08-09T20:56:20.992Z,25.10
2022-08-09T20:58:49.101Z,24.99
2022-08-09T21:01:35.267Z,24.89
2022-08-09T21:05:48.528Z,24.80
2022-08-09T21:06:50.505Z,24.64
2022-08-09T21:09:32.712Z,24.55
2022-08-09T21:14:33.823Z,24.28
2022-08-09T21:17:02.437Z,24.17
2022-08-09T21:20:17.550Z,24.08
2022-08-09T21:22:41.242Z,23.99
2022-08-09T21:25:27.413Z,23.92
2022-08-09T21:28:04.959Z,23.85
2022-08-09T21:30:37.078Z,23.78
2022-08-09T21:33:08.160Z,23.69
2022-08-09T21:35:39.486Z,23.60
2022-08-09T21:38:30.878Z,23.50
2022-08-09T21:40:59.124Z,23.42
2022-08-09T21:43:56.256Z,23.34
2022-08-09T21:46:12.029Z,23.25
2022-08-09T21:48:42.630Z,23.18
2022-08-09T21:51:24.260Z,23.07
2022-08-09T21:54:02.507Z,22.96
2022-08-09T21:56:43.303Z,22.88
2022-08-09T21:59:11.565Z,22.78
2022-08-09T22:01:58.881Z,22.71
2022-08-09T22:04:37.585Z,22.64
2022-08-09T22:07:14.359Z,22.56
2022-08-09T22:09:59.992Z,22.49
2022-08-09T22:12:30.795Z,22.44
2022-08-09T22:14:58.069Z,22.38
2022-08-09T22:17:24.503Z,22.33
2022-08-09T22:19:58.353Z,22.27
2022-08-09T22:22:25.982Z,22.23
2022-08-09T22:24:53.628Z,22.15
2022-08-09T22:27:39.070Z,22.09
2022-08-09T22:30:07.622Z,22.04
2022-08-09T22:32:34.695Z,21.96
2022-08-09T22:35:06.621Z,21.88
2022-08-09T22:37:49.639Z,21.75
2022-08-09T22:40:34.187Z,21.66
2022-08-09T22:43:01.058Z,21.58
2022-08-09T22:48:14.402Z,21.51
2022-08-09T22:48:35.454Z,21.45
2022-08-09T22:51:02.232Z,21.40
2022-08-09T22:53:58.235Z,21.34
2022-08-09T22:56:30.945Z,21.29
2022-08-09T22:59:06.148Z,21.23
2022-08-09T23:01:48.660Z,21.15
2022-08-09T23:04:15.124Z,21.09
2022-08-09T23:07:01.528Z,21.02
2022-08-09T23:09:27.960Z,20.94
2022-08-09T23:14:23.457Z,20.84
2022-08-09T23:17:04.323Z,20.79
2022-08-09T23:19:30.769Z,20.77
2022-08-09T23:22:17.365Z,20.74
2022-08-09T23:24:44.019Z,20.72
2022-08-09T23:27:15.233Z,20.66
2022-08-09T23:29:41.675Z,20.67
2022-08-09T23:32:08.088Z,20.68
2022-08-09T23:34:34.534Z,20.67
2022-08-09T23:37:00.961Z,20.66
2022-08-09T23:39:27.453Z,20.64
2022-08-09T23:41:53.971Z,20.62
2022-08-09T23:44:20.584Z,20.57
2022-08-09T23:46:48.711Z,20.51
2022-08-09T23:49:24.651Z,20.44
2022-08-09T23:51:52.206Z,20.39
2022-08-09T23:54:19.874Z,20.37
2022-08-09T23:56:54.487Z,20.32
2022-08-09T23:59:23.385Z,20.26
